sensor_id;sensor_type;location;lat;lon;timestamp;pressure;altitude;pressure_sealevel;temperature;humidity
68197;BME280;55019;49.382;11.358;2023-02-15T00:01:27;98032.34;;;-0.91;100.00
68197;BME280;55019;49.382;11.358;2023-02-15T00:03:53;98031.69;;;-0.96;100.00
68197;BME280;55019;49.382;11.358;2023-02-15T00:06:18;98026.78;;;-1.00;100.00
68197;BME280;55019;49.382;11.358;2023-02-15T00:08:44;98024.78;;;-0.92;100.00
68197;BME280;55019;49.382;11.358;2023-02-15T00:11:12;98031.97;;;-1.03;100.00
68197;BME280;55019;49.382;11.358;2023-02-15T00:13:38;98026.72;;;-1.43;100.00
68197;BME280;55019;49.382;11.358;2023-02-15T00:16:10;98017.69;;;-1.50;100.00
68197;BME280;55019;49.382;11.358;2023-02-15T00:18:36;98021.31;;;-1.34;100.00
68197;BME280;55019;49.382;11.358;2023-02-15T00:21:06;98018.00;;;-1.13;100.00
68197;BME280;55019;49.382;11.358;2023-02-15T00:23:32;98018.00;;;-1.36;100.00
68197;BME280;55019;49.382;11.358;2023-02-15T00:26:11;98019.72;;;-1.59;100.00
68197;BME280;55019;49.382;11.358;2023-02-15T00:28:37;98028.25;;;-1.39;100.00
68197;BME280;55019;49.382;11.358;2023-02-15T00:33:29;98016.84;;;-1.28;100.00
68197;BME280;55019;49.382;11.358;2023-02-15T00:35:59;98010.03;;;-1.04;100.00
68197;BME280;55019;49.382;11.358;2023-02-15T00:38:26;98012.16;;;-1.15;100.00
68197;BME280;55019;49.382;11.358;2023-02-15T00:40:56;98010.63;;;-1.42;100.00
68197;BME280;55019;49.382;11.358;2023-02-15T00:43:22;98002.22;;;-1.42;100.00
68197;BME280;55019;49.382;11.358;2023-02-15T00:45:47;98014.06;;;-1.43;100.00
68197;BME280;55019;49.382;11.358;2023-02-15T00:48:13;98002.69;;;-1.33;100.00
68197;BME280;55019;49.382;11.358;2023-02-15T00:50:38;98007.13;;;-1.17;100.00
68197;BME280;55019;49.382;11.358;2023-02-15T00:53:04;98012.16;;;-0.94;100.00
68197;BME280;55019;49.382;11.358;2023-02-15T00:55:29;98000.09;;;-1.32;100.00
68197;BME280;55019;49.382;11.358;2023-02-15T00:57:55;98007.56;;;-1.27;100.00
68197;BME280;55019;49.382;11.358;2023-02-15T01:00:20;98008.66;;;-1.57;100.00
68197;BME280;55019;49.382;11.358;2023-02-15T01:02:46;98004.25;;;-1.52;100.00
68197;BME280;55019;49.382;11.358;2023-02-15T01:05:11;98004.13;;;-1.26;100.00
68197;BME280;55019;49.382;11.358;2023-02-15T01:07:37;98002.56;;;-1.30;100.00
68197;BME280;55019;49.382;11.358;2023-02-15T01:10:04;97999.41;;;-1.58;100.00
68197;BME280;55019;49.382;11.358;2023-02-15T01:12:30;98000.72;;;-1.25;100.00
68197;BME280;55019;49.382;11.358;2023-02-15T01:14:55;97992.00;;;-1.41;100.00
68197;BME280;55019;49.382;11.358;2023-02-15T01:17:20;97988.19;;;-1.30;100.00
68197;BME280;55019;49.382;11.358;2023-02-15T01:19:46;97981.09;;;-1.43;100.00
68197;BME280;55019;49.382;11.358;2023-02-15T01:22:11;97989.78;;;-1.48;100.00
68197;BME280;55019;49.382;11.358;2023-02-15T01:24:36;97977.28;;;-1.54;100.00
68197;BME280;55019;49.382;11.358;2023-02-15T01:27:02;97992.22;;;-1.47;100.00
68197;BME280;55019;49.382;11.358;2023-02-15T01:29:27;97978.25;;;-1.57;100.00
68197;BME280;55019;49.382;11.358;2023-02-15T01:31:53;97983.06;;;-1.49;100.00
68197;BME280;55019;49.382;11.358;2023-02-15T01:34:18;97972.56;;;-1.63;100.00
68197;BME280;55019;49.382;11.358;2023-02-15T01:36:44;97979.34;;;-1.87;100.00
68197;BME280;55019;49.382;11.358;2023-02-15T01:39:09;97975.72;;;-2.03;100.00
68197;BME280;55019;49.382;11.358;2023-02-15T01:41:35;97968.25;;;-2.07;100.00
68197;BME280;55019;49.382;11.358;2023-02-15T01:44:02;97967.81;;;-1.71;100.00
68197;BME280;55019;49.382;11.358;2023-02-15T01:46:35;97958.09;;;-1.60;100.00
68197;BME280;55019;49.382;11.358;2023-02-15T01:49:07;97966.00;;;-1.46;100.00
68197;BME280;55019;49.382;11.358;2023-02-15T01:51:37;97958.47;;;-1.47;100.00
68197;BME280;55019;49.382;11.358;2023-02-15T01:54:27;97957.97;;;-1.57;100.00
68197;BME280;55019;49.382;11.358;2023-02-15T01:56:58;97965.78;;;-1.40;100.00
68197;BME280;55019;49.382;11.358;2023-02-15T01:59:25;97955.53;;;-1.16;100.00
68197;BME280;55019;49.382;11.358;2023-02-15T02:01:52;97958.66;;;-1.09;100.00
68197;BME280;55019;49.382;11.358;2023-02-15T02:04:35;97960.84;;;-1.00;100.00
68197;BME280;55019;49.382;11.358;2023-02-15T02:07:04;97954.34;;;-1.07;100.00
68197;BME280;55019;49.382;11.358;2023-02-15T02:09:30;97954.94;;;-1.01;100.00
68197;BME280;55019;49.382;11.358;2023-02-15T02:11:55;97948.22;;;-1.44;100.00
68197;BME280;55019;49.382;11.358;2023-02-15T02:14:21;97945.00;;;-1.71;100.00
68197;BME280;55019;49.382;11.358;2023-02-15T02:20:15;97941.91;;;-2.02;100.00
68197;BME280;55019;49.382;11.358;2023-02-15T02:30:48;97934.38;;;-1.80;100.00
68197;BME280;55019;49.382;11.358;2023-02-15T02:36:28;97938.13;;;-1.90;100.00
68197;BME280;55019;49.382;11.358;2023-02-15T02:39:30;97933.97;;;-1.93;100.00
68197;BME280;55019;49.382;11.358;2023-02-15T02:42:06;97928.59;;;-1.62;100.00
68197;BME280;55019;49.382;11.358;2023-02-15T02:44:43;97915.31;;;-1.46;100.00
68197;BME280;55019;49.382;11.358;2023-02-15T02:47:18;97933.81;;;-1.23;100.00
68197;BME280;55019;49.382;11.358;2023-02-15T02:49:45;97929.34;;;-1.59;100.00
68197;BME280;55019;49.382;11.358;2023-02-15T02:52:37;97926.69;;;-1.56;100.00
68197;BME280;55019;49.382;11.358;2023-02-15T02:55:06;97928.28;;;-1.32;100.00
68197;BME280;55019;49.382;11.358;2023-02-15T02:57:36;97924.72;;;-1.28;100.00
68197;BME280;55019;49.382;11.358;2023-02-15T03:00:04;97927.88;;;-1.22;100.00
68197;BME280;55019;49.382;11.358;2023-02-15T03:02:36;97914.66;;;-1.51;99.71
68197;BME280;55019;49.382;11.358;2023-02-15T03:05:06;97918.50;;;-1.41;100.00
68197;BME280;55019;49.382;11.358;2023-02-15T03:07:34;97917.06;;;-1.69;100.00
68197;BME280;55019;49.382;11.358;2023-02-15T03:10:03;97913.78;;;-1.50;100.00
68197;BME280;55019;49.382;11.358;2023-02-15T03:12:36;97907.22;;;-1.55;100.00
68197;BME280;55019;49.382;11.358;2023-02-15T03:15:13;97910.19;;;-1.89;100.00
68197;BME280;55019;49.382;11.358;2023-02-15T03:17:45;97905.09;;;-1.66;100.00
68197;BME280;55019;49.382;11.358;2023-02-15T03:20:33;97916.19;;;-1.91;100.00
68197;BME280;55019;49.382;11.358;2023-02-15T03:23:04;97910.53;;;-2.21;100.00
68197;BME280;55019;49.382;11.358;2023-02-15T03:25:39;97918.69;;;-2.13;100.00
68197;BME280;55019;49.382;11.358;2023-02-15T03:28:08;97915.03;;;-2.29;100.00
68197;BME280;55019;49.382;11.358;2023-02-15T03:30:36;97920.16;;;-2.55;100.00
68197;BME280;55019;49.382;11.358;2023-02-15T03:33:04;97914.22;;;-2.54;100.00
68197;BME280;55019;49.382;11.358;2023-02-15T03:35:43;97920.38;;;-2.61;100.00
68197;BME280;55019;49.382;11.358;2023-02-15T03:38:18;97915.88;;;-2.30;100.00
68197;BME280;55019;49.382;11.358;2023-02-15T03:40:46;97916.63;;;-2.51;100.00
68197;BME280;55019;49.382;11.358;2023-02-15T03:46:11;97918.41;;;-2.30;100.00
68197;BME280;55019;49.382;11.358;2023-02-15T03:48:44;97901.53;;;-2.06;100.00
68197;BME280;55019;49.382;11.358;2023-02-15T03:51:15;97911.72;;;-1.85;100.00
68197;BME280;55019;49.382;11.358;2023-02-15T03:56:30;97901.56;;;-1.62;100.00
68197;BME280;55019;49.382;11.358;2023-02-15T03:58:56;97911.13;;;-1.47;100.00
68197;BME280;55019;49.382;11.358;2023-02-15T04:02:28;97906.88;;;-1.68;100.00
68197;BME280;55019;49.382;11.358;2023-02-15T04:04:42;97918.44;;;-1.84;100.00
68197;BME280;55019;49.382;11.358;2023-02-15T04:07:08;97912.38;;;-1.80;100.00
68197;BME280;55019;49.382;11.358;2023-02-15T04:09:34;97909.19;;;-1.85;100.00
68197;BME280;55019;49.382;11.358;2023-02-15T04:12:18;97916.09;;;-1.88;100.00
68197;BME280;55019;49.382;11.358;2023-02-15T04:14:44;97917.66;;;-1.86;100.00
68197;BME280;55019;49.382;11.358;2023-02-15T04:17:28;97918.34;;;-2.27;100.00
68197;BME280;55019;49.382;11.358;2023-02-15T04:19:54;97925.00;;;-2.24;100.00
68197;BME280;55019;49.382;11.358;2023-02-15T04:22:38;97926.28;;;-2.13;100.00
68197;BME280;55019;49.382;11.358;2023-02-15T04:25:22;97932.53;;;-2.23;100.00
68197;BME280;55019;49.382;11.358;2023-02-15T04:27:50;97939.91;;;-2.17;100.00
68197;BME280;55019;49.382;11.358;2023-02-15T04:30:17;97936.13;;;-2.30;100.00
68197;BME280;55019;49.382;11.358;2023-02-15T04:32:44;97940.63;;;-2.13;100.00
68197;BME280;55019;49.382;11.358;2023-02-15T04:35:10;97935.00;;;-2.21;100.00
68197;BME280;55019;49.382;11.358;2023-02-15T04:37:36;97924.50;;;-2.11;100.00
68197;BME280;55019;49.382;11.358;2023-02-15T04:40:03;97932.31;;;-2.17;100.00
68197;BME280;55019;49.382;11.358;2023-02-15T04:42:29;97926.31;;;-2.37;100.00
68197;BME280;55019;49.382;11.358;2023-02-15T04:44:54;97914.78;;;-2.46;100.00
68197;BME280;55019;49.382;11.358;2023-02-15T04:47:20;97928.81;;;-2.13;100.00
68197;BME280;55019;49.382;11.358;2023-02-15T04:49:45;97930.66;;;-1.95;100.00
68197;BME280;55019;49.382;11.358;2023-02-15T04:52:11;97917.78;;;-1.89;100.00
68197;BME280;55019;49.382;11.358;2023-02-15T04:54:40;97924.00;;;-2.20;100.00
68197;BME280;55019;49.382;11.358;2023-02-15T04:57:05;97923.72;;;-1.90;100.00
68197;BME280;55019;49.382;11.358;2023-02-15T04:59:30;97920.94;;;-2.30;100.00
68197;BME280;55019;49.382;11.358;2023-02-15T05:01:56;97914.44;;;-2.37;100.00
68197;BME280;55019;49.382;11.358;2023-02-15T05:04:22;97927.06;;;-2.35;100.00
68197;BME280;55019;49.382;11.358;2023-02-15T05:06:48;97932.31;;;-2.17;100.00
68197;BME280;55019;49.382;11.358;2023-02-15T05:09:16;97904.47;;;-2.17;100.00
68197;BME280;55019;49.382;11.358;2023-02-15T05:11:42;97925.53;;;-1.70;100.00
68197;BME280;55019;49.382;11.358;2023-02-15T05:14:07;97914.44;;;-1.89;100.00
68197;BME280;55019;49.382;11.358;2023-02-15T05:16:33;97929.69;;;-1.91;100.00
68197;BME280;55019;49.382;11.358;2023-02-15T05:18:58;97927.69;;;-2.06;100.00
68197;BME280;55019;49.382;11.358;2023-02-15T05:21:24;97920.38;;;-1.90;100.00
68197;BME280;55019;49.382;11.358;2023-02-15T05:23:49;97929.13;;;-1.99;100.00
68197;BME280;55019;49.382;11.358;2023-02-15T05:26:20;97920.03;;;-1.81;100.00
68197;BME280;55019;49.382;11.358;2023-02-15T05:29:05;97917.25;;;-1.74;100.00
68197;BME280;55019;49.382;11.358;2023-02-15T05:31:31;97904.28;;;-1.66;100.00
68197;BME280;55019;49.382;11.358;2023-02-15T05:33:56;97906.41;;;-2.00;100.00
68197;BME280;55019;49.382;11.358;2023-02-15T05:36:22;97897.47;;;-1.87;100.00
68197;BME280;55019;49.382;11.358;2023-02-15T05:38:48;97905.78;;;-1.84;100.00
68197;BME280;55019;49.382;11.358;2023-02-15T05:41:13;97907.59;;;-2.10;100.00
68197;BME280;55019;49.382;11.358;2023-02-15T05:43:39;97910.75;;;-2.04;100.00
68197;BME280;55019;49.382;11.358;2023-02-15T05:46:05;97901.78;;;-2.37;100.00
68197;BME280;55019;49.382;11.358;2023-02-15T05:48:31;97904.81;;;-2.03;100.00
68197;BME280;55019;49.382;11.358;2023-02-15T05:51:07;97901.19;;;-2.19;100.00
68197;BME280;55019;49.382;11.358;2023-02-15T05:53:35;97897.13;;;-2.72;100.00
68197;BME280;55019;49.382;11.358;2023-02-15T05:56:01;97888.47;;;-2.42;100.00
68197;BME280;55019;49.382;11.358;2023-02-15T05:58:38;97892.19;;;-2.27;100.00
68197;BME280;55019;49.382;11.358;2023-02-15T06:01:08;97895.63;;;-2.53;100.00
68197;BME280;55019;49.382;11.358;2023-02-15T06:03:34;97892.78;;;-2.44;100.00
68197;BME280;55019;49.382;11.358;2023-02-15T06:05:59;97896.63;;;-2.34;100.00
68197;BME280;55019;49.382;11.358;2023-02-15T06:08:25;97897.94;;;-2.47;100.00
68197;BME280;55019;49.382;11.358;2023-02-15T06:10:50;97901.41;;;-2.74;100.00
68197;BME280;55019;49.382;11.358;2023-02-15T06:13:15;97902.19;;;-2.72;100.00
68197;BME280;55019;49.382;11.358;2023-02-15T06:15:41;97899.34;;;-2.63;100.00
68197;BME280;55019;49.382;11.358;2023-02-15T06:18:06;97899.69;;;-2.73;100.00
68197;BME280;55019;49.382;11.358;2023-02-15T06:20:31;97892.44;;;-2.82;100.00
68197;BME280;55019;49.382;11.358;2023-02-15T06:22:57;97888.59;;;-2.93;100.00
68197;BME280;55019;49.382;11.358;2023-02-15T06:25:22;97900.38;;;-2.68;100.00
68197;BME280;55019;49.382;11.358;2023-02-15T06:27:49;97897.63;;;-2.38;100.00
68197;BME280;55019;49.382;11.358;2023-02-15T06:30:15;97893.94;;;-2.29;100.00
68197;BME280;55019;49.382;11.358;2023-02-15T06:32:41;97899.53;;;-2.20;100.00
68197;BME280;55019;49.382;11.358;2023-02-15T06:35:06;97900.69;;;-2.53;100.00
68197;BME280;55019;49.382;11.358;2023-02-15T06:37:32;97902.78;;;-2.41;100.00
68197;BME280;55019;49.382;11.358;2023-02-15T06:39:57;97905.84;;;-2.80;100.00
68197;BME280;55019;49.382;11.358;2023-02-15T06:42:23;97898.81;;;-2.96;100.00
68197;BME280;55019;49.382;11.358;2023-02-15T06:44:49;97907.81;;;-2.88;100.00
68197;BME280;55019;49.382;11.358;2023-02-15T06:47:14;97911.78;;;-2.57;100.00
68197;BME280;55019;49.382;11.358;2023-02-15T06:49:39;97910.59;;;-2.71;100.00
68197;BME280;55019;49.382;11.358;2023-02-15T06:52:05;97914.31;;;-2.57;100.00
68197;BME280;55019;49.382;11.358;2023-02-15T06:54:31;97904.72;;;-2.72;100.00
68197;BME280;55019;49.382;11.358;2023-02-15T06:56:56;97905.28;;;-2.64;100.00
68197;BME280;55019;49.382;11.358;2023-02-15T06:59:21;97905.03;;;-2.81;100.00
68197;BME280;55019;49.382;11.358;2023-02-15T07:01:47;97898.88;;;-2.98;100.00
68197;BME280;55019;49.382;11.358;2023-02-15T07:04:12;97899.91;;;-2.79;100.00
68197;BME280;55019;49.382;11.358;2023-02-15T07:06:38;97908.63;;;-2.63;100.00
68197;BME280;55019;49.382;11.358;2023-02-15T07:09:04;97907.75;;;-2.62;100.00
68197;BME280;55019;49.382;11.358;2023-02-15T07:11:30;97907.34;;;-2.75;100.00
68197;BME280;55019;49.382;11.358;2023-02-15T07:14:14;97905.09;;;-2.84;100.00
68197;BME280;55019;49.382;11.358;2023-02-15T07:16:40;97910.56;;;-2.70;100.00
68197;BME280;55019;49.382;11.358;2023-02-15T07:19:07;97906.47;;;-2.74;100.00
68197;BME280;55019;49.382;11.358;2023-02-15T07:21:33;97916.81;;;-2.55;100.00
68197;BME280;55019;49.382;11.358;2023-02-15T07:23:59;97916.28;;;-2.65;100.00
68197;BME280;55019;49.382;11.358;2023-02-15T07:26:25;97918.56;;;-2.10;100.00
68197;BME280;55019;49.382;11.358;2023-02-15T07:28:51;97919.59;;;-2.15;100.00
68197;BME280;55019;49.382;11.358;2023-02-15T07:31:16;97921.22;;;-2.13;100.00
68197;BME280;55019;49.382;11.358;2023-02-15T07:33:42;97916.50;;;-2.23;100.00
68197;BME280;55019;49.382;11.358;2023-02-15T07:36:08;97927.38;;;-2.20;100.00
68197;BME280;55019;49.382;11.358;2023-02-15T07:38:38;97917.09;;;-2.40;100.00
68197;BME280;55019;49.382;11.358;2023-02-15T07:41:06;97901.28;;;-2.22;100.00
68197;BME280;55019;49.382;11.358;2023-02-15T07:43:34;97898.38;;;-2.36;100.00
68197;BME280;55019;49.382;11.358;2023-02-15T07:46:05;97908.78;;;-2.43;100.00
68197;BME280;55019;49.382;11.358;2023-02-15T07:48:31;97905.22;;;-2.38;100.00
68197;BME280;55019;49.382;11.358;2023-02-15T07:51:01;97901.19;;;-2.43;100.00
68197;BME280;55019;49.382;11.358;2023-02-15T07:53:26;97903.16;;;-2.27;100.00
68197;BME280;55019;49.382;11.358;2023-02-15T07:55:52;97879.78;;;-2.35;100.00
68197;BME280;55019;49.382;11.358;2023-02-15T07:58:18;97890.56;;;-2.30;100.00
68197;BME280;55019;49.382;11.358;2023-02-15T08:00:43;97888.50;;;-2.19;100.00
68197;BME280;55019;49.382;11.358;2023-02-15T08:03:25;97886.28;;;-1.82;100.00
68197;BME280;55019;49.382;11.358;2023-02-15T08:05:58;97881.09;;;-1.79;99.62
68197;BME280;55019;49.382;11.358;2023-02-15T08:08:26;97882.56;;;-2.18;100.00
68197;BME280;55019;49.382;11.358;2023-02-15T08:11:06;97884.16;;;-2.15;100.00
68197;BME280;55019;49.382;11.358;2023-02-15T08:13:56;97887.13;;;-2.04;100.00
68197;BME280;55019;49.382;11.358;2023-02-15T08:18:52;97884.31;;;-1.74;99.14
68197;BME280;55019;49.382;11.358;2023-02-15T08:21:19;97870.50;;;-1.88;99.90
68197;BME280;55019;49.382;11.358;2023-02-15T08:23:44;97877.47;;;-1.50;99.26
68197;BME280;55019;49.382;11.358;2023-02-15T08:26:10;97888.28;;;-1.90;99.76
68197;BME280;55019;49.382;11.358;2023-02-15T08:28:35;97876.22;;;-1.83;100.00
68197;BME280;55019;49.382;11.358;2023-02-15T08:31:11;97883.59;;;-1.77;99.64
68197;BME280;55019;49.382;11.358;2023-02-15T08:33:38;97890.03;;;-1.92;99.35
68197;BME280;55019;49.382;11.358;2023-02-15T08:36:10;97888.28;;;-1.90;99.99
68197;BME280;55019;49.382;11.358;2023-02-15T08:38:36;97901.97;;;-1.72;98.99
68197;BME280;55019;49.382;11.358;2023-02-15T08:41:19;97895.31;;;-1.75;98.31
68197;BME280;55019;49.382;11.358;2023-02-15T08:43:47;97888.28;;;-1.90;99.61
68197;BME280;55019;49.382;11.358;2023-02-15T08:46:14;97889.28;;;-1.49;99.58
68197;BME280;55019;49.382;11.358;2023-02-15T08:48:40;97891.22;;;-1.35;97.78
68197;BME280;55019;49.382;11.358;2023-02-15T08:51:13;97894.09;;;-1.22;98.25
68197;BME280;55019;49.382;11.358;2023-02-15T08:53:41;97892.19;;;-1.17;96.82
68197;BME280;55019;49.382;11.358;2023-02-15T08:56:07;97897.63;;;-1.26;97.29
68197;BME280;55019;49.382;11.358;2023-02-15T08:58:33;97891.09;;;-0.90;96.81
68197;BME280;55019;49.382;11.358;2023-02-15T09:00:59;97902.22;;;-1.14;95.92
68197;BME280;55019;49.382;11.358;2023-02-15T09:03:27;97902.34;;;-1.17;96.43
68197;BME280;55019;49.382;11.358;2023-02-15T09:05:58;97894.75;;;-1.60;99.11
68197;BME280;55019;49.382;11.358;2023-02-15T09:08:25;97903.28;;;-1.41;98.97
68197;BME280;55019;49.382;11.358;2023-02-15T09:10:50;97905.78;;;-1.40;98.41
68197;BME280;55019;49.382;11.358;2023-02-15T09:13:16;97900.44;;;-1.12;98.84
68197;BME280;55019;49.382;11.358;2023-02-15T09:15:41;97905.63;;;-0.94;97.81
68197;BME280;55019;49.382;11.358;2023-02-15T09:18:06;97905.16;;;-1.03;96.40
68197;BME280;55019;49.382;11.358;2023-02-15T09:20:35;97914.19;;;-0.76;94.81
68197;BME280;55019;49.382;11.358;2023-02-15T09:23:01;97896.41;;;-0.96;95.60
68197;BME280;55019;49.382;11.358;2023-02-15T09:25:27;97907.38;;;-0.96;94.39
68197;BME280;55019;49.382;11.358;2023-02-15T09:27:52;97902.28;;;-0.74;96.03
68197;BME280;55019;49.382;11.358;2023-02-15T09:30:18;97905.88;;;-0.80;94.92
68197;BME280;55019;49.382;11.358;2023-02-15T09:32:44;97884.28;;;-1.31;95.74
68197;BME280;55019;49.382;11.358;2023-02-15T09:35:11;97908.47;;;-1.23;98.35
68197;BME280;55019;49.382;11.358;2023-02-15T09:37:37;97901.72;;;-1.02;97.10
68197;BME280;55019;49.382;11.358;2023-02-15T09:40:03;97895.78;;;-1.01;96.63
68197;BME280;55019;49.382;11.358;2023-02-15T09:43:08;97906.63;;;-0.78;96.30
68197;BME280;55019;49.382;11.358;2023-02-15T09:46:30;97907.31;;;-0.34;93.79
68197;BME280;55019;49.382;11.358;2023-02-15T09:48:54;97882.72;;;0.04;92.27
68197;BME280;55019;49.382;11.358;2023-02-15T09:51:50;97880.28;;;-0.35;92.23
68197;BME280;55019;49.382;11.358;2023-02-15T09:54:32;97887.75;;;0.24;91.82
68197;BME280;55019;49.382;11.358;2023-02-15T10:02:48;97896.13;;;0.08;91.12
68197;BME280;55019;49.382;11.358;2023-02-15T10:08:26;97908.22;;;0.75;88.25
68197;BME280;55019;49.382;11.358;2023-02-15T10:11:13;97877.81;;;0.55;88.23
68197;BME280;55019;49.382;11.358;2023-02-15T10:14:35;97891.25;;;0.03;89.85
68197;BME280;55019;49.382;11.358;2023-02-15T10:17:33;97883.19;;;0.68;87.56
68197;BME280;55019;49.382;11.358;2023-02-15T10:26:21;97898.50;;;0.66;87.66
68197;BME280;55019;49.382;11.358;2023-02-15T10:29:06;97899.03;;;0.37;89.12
68197;BME280;55019;49.382;11.358;2023-02-15T10:31:48;97869.06;;;-0.11;90.20
68197;BME280;55019;49.382;11.358;2023-02-15T10:34:17;97894.06;;;0.53;89.15
68197;BME280;55019;49.382;11.358;2023-02-15T10:40:04;97874.22;;;0.78;87.98
68197;BME280;55019;49.382;11.358;2023-02-15T10:51:03;97866.81;;;2.06;81.61
68197;BME280;55019;49.382;11.358;2023-02-15T10:56:19;97857.03;;;2.14;81.54
68197;BME280;55019;49.382;11.358;2023-02-15T10:59:04;97862.97;;;3.05;79.86
68197;BME280;55019;49.382;11.358;2023-02-15T11:01:47;97822.63;;;5.77;65.90
68197;BME280;55019;49.382;11.358;2023-02-15T11:06:59;97856.69;;;3.40;72.57
68197;BME280;55019;49.382;11.358;2023-02-15T11:09:33;97826.91;;;2.67;75.98
68197;BME280;55019;49.382;11.358;2023-02-15T11:12:10;97839.91;;;3.07;76.86
68197;BME280;55019;49.382;11.358;2023-02-15T11:17:21;97815.44;;;2.74;76.55
68197;BME280;55019;49.382;11.358;2023-02-15T11:20:15;97809.59;;;2.11;80.67
68197;BME280;55019;49.382;11.358;2023-02-15T11:22:47;97822.25;;;2.44;78.75
68197;BME280;55019;49.382;11.358;2023-02-15T11:25:31;97812.69;;;3.77;76.52
68197;BME280;55019;49.382;11.358;2023-02-15T11:27:58;97807.78;;;7.01;63.40
68197;BME280;55019;49.382;11.358;2023-02-15T11:30:50;97792.66;;;7.20;59.57
68197;BME280;55019;49.382;11.358;2023-02-15T11:33:31;97790.19;;;9.74;51.64
68197;BME280;55019;49.382;11.358;2023-02-15T11:36:00;97785.66;;;7.33;57.08
68197;BME280;55019;49.382;11.358;2023-02-15T11:38:33;97777.69;;;11.34;50.01
68197;BME280;55019;49.382;11.358;2023-02-15T11:46:52;97779.59;;;17.50;34.24
68197;BME280;55019;49.382;11.358;2023-02-15T11:49:31;97755.84;;;17.89;32.66
68197;BME280;55019;49.382;11.358;2023-02-15T11:51:58;97738.44;;;17.08;31.61
68197;BME280;55019;49.382;11.358;2023-02-15T11:54:32;97768.41;;;15.90;33.48
68197;BME280;55019;49.382;11.358;2023-02-15T11:57:15;97752.78;;;13.80;37.94
68197;BME280;55019;49.382;11.358;2023-02-15T11:59:49;97740.63;;;11.88;41.76
68197;BME280;55019;49.382;11.358;2023-02-15T12:02:21;97745.31;;;13.08;39.81
68197;BME280;55019;49.382;11.358;2023-02-15T12:05:20;97774.47;;;16.90;33.63
68197;BME280;55019;49.382;11.358;2023-02-15T12:08:15;97745.78;;;18.65;31.21
68197;BME280;55019;49.382;11.358;2023-02-15T12:13:19;97758.25;;;18.48;29.74
68197;BME280;55019;49.382;11.358;2023-02-15T12:15:50;97741.28;;;16.07;33.66
68197;BME280;55019;49.382;11.358;2023-02-15T12:18:38;97762.72;;;14.75;34.53
68197;BME280;55019;49.382;11.358;2023-02-15T12:21:15;97755.75;;;14.83;36.75
68197;BME280;55019;49.382;11.358;2023-02-15T12:26:11;97744.59;;;16.31;33.68
68197;BME280;55019;49.382;11.358;2023-02-15T12:28:41;97731.69;;;17.72;31.39
68197;BME280;55019;49.382;11.358;2023-02-15T12:31:31;97733.06;;;16.26;32.69
68197;BME280;55019;49.382;11.358;2023-02-15T12:34:00;97738.63;;;16.23;32.57
68197;BME280;55019;49.382;11.358;2023-02-15T12:36:40;97721.13;;;15.15;35.94
68197;BME280;55019;49.382;11.358;2023-02-15T12:41:44;97713.78;;;17.33;31.29
68197;BME280;55019;49.382;11.358;2023-02-15T12:44:19;97711.81;;;16.67;31.85
68197;BME280;55019;49.382;11.358;2023-02-15T12:49:26;97716.56;;;14.85;35.86
68197;BME280;55019;49.382;11.358;2023-02-15T12:51:54;97712.44;;;14.50;35.95
68197;BME280;55019;49.382;11.358;2023-02-15T12:57:25;97718.13;;;17.54;31.83
68197;BME280;55019;49.382;11.358;2023-02-15T12:59:57;97715.31;;;17.42;32.40
68197;BME280;55019;49.382;11.358;2023-02-15T13:02:29;97707.69;;;18.83;30.66
68197;BME280;55019;49.382;11.358;2023-02-15T13:04:56;97711.59;;;16.99;32.35
68197;BME280;55019;49.382;11.358;2023-02-15T13:07:25;97716.63;;;14.20;36.30
68197;BME280;55019;49.382;11.358;2023-02-15T13:09:54;97714.78;;;15.41;36.04
68197;BME280;55019;49.382;11.358;2023-02-15T13:12:23;97709.78;;;17.00;32.36
68197;BME280;55019;49.382;11.358;2023-02-15T13:14:52;97695.19;;;17.28;31.53
68197;BME280;55019;49.382;11.358;2023-02-15T13:17:30;97693.53;;;17.35;32.10
68197;BME280;55019;49.382;11.358;2023-02-15T13:20:16;97699.22;;;14.28;36.60
68197;BME280;55019;49.382;11.358;2023-02-15T13:22:46;97703.31;;;14.39;36.80
68197;BME280;55019;49.382;11.358;2023-02-15T13:25:18;97704.78;;;16.15;34.70
68197;BME280;55019;49.382;11.358;2023-02-15T13:27:46;97698.13;;;15.66;35.01
68197;BME280;55019;49.382;11.358;2023-02-15T13:32:45;97693.19;;;19.84;28.00
68197;BME280;55019;49.382;11.358;2023-02-15T13:35:16;97689.22;;;19.60;27.93
68197;BME280;55019;49.382;11.358;2023-02-15T13:40:41;97689.00;;;19.62;27.60
68197;BME280;55019;49.382;11.358;2023-02-15T13:46:18;97689.78;;;21.68;25.45
68197;BME280;55019;49.382;11.358;2023-02-15T13:49:13;97694.53;;;19.18;28.26
68197;BME280;55019;49.382;11.358;2023-02-15T13:52:08;97704.88;;;16.60;31.88
68197;BME280;55019;49.382;11.358;2023-02-15T14:09:21;97699.44;;;14.43;36.94
68197;BME280;55019;49.382;11.358;2023-02-15T14:14:57;97707.72;;;13.97;37.12
68197;BME280;55019;49.382;11.358;2023-02-15T14:23:25;97698.06;;;14.15;37.00
68197;BME280;55019;49.382;11.358;2023-02-15T14:29:25;97698.19;;;14.54;36.60
68197;BME280;55019;49.382;11.358;2023-02-15T14:31:56;97703.34;;;12.08;40.78
68197;BME280;55019;49.382;11.358;2023-02-15T14:36:53;97694.72;;;13.30;38.90
68197;BME280;55019;49.382;11.358;2023-02-15T14:39:31;97696.63;;;12.15;40.98
68197;BME280;55019;49.382;11.358;2023-02-15T14:42:28;97705.22;;;10.78;43.97
68197;BME280;55019;49.382;11.358;2023-02-15T14:45:13;97692.47;;;11.32;43.31
68197;BME280;55019;49.382;11.358;2023-02-15T14:47:55;97709.22;;;12.28;41.67
68197;BME280;55019;49.382;11.358;2023-02-15T14:50:37;97704.81;;;13.15;39.96
68197;BME280;55019;49.382;11.358;2023-02-15T14:56:14;97700.91;;;14.37;37.56
68197;BME280;55019;49.382;11.358;2023-02-15T15:01:15;97690.53;;;15.01;35.99
68197;BME280;55019;49.382;11.358;2023-02-15T15:03:52;97690.78;;;12.83;39.56
68197;BME280;55019;49.382;11.358;2023-02-15T15:06:56;97684.50;;;13.03;39.82
68197;BME280;55019;49.382;11.358;2023-02-15T15:09:27;97683.16;;;12.64;41.19